Terminal Aerodrome Forecast
Issued by NWS

Home | Current Version | Previous Version | Text Only | Print | Product List | Glossary On
Versions: 1 2 3 4 5 6 7 8 9 10 11 12 13 14 15 16 17 18 19 20
168
FTUS43 KJKL 301138
TAFSJS
TAF
KSJS 301138Z 3012/3112 VRB03KT P6SM VCSH SCT009 BKN015
     FM301330 VRB03KT P6SM SCT001 BKN020
     FM301600 25005KT P6SM VCTS SCT020CB BKN035
     FM310600 VRB03KT 6SM BR SCT001 BKN150
      AMD NOT SKED=

USA.gov is the U.S. government's official web portal to all federal, state and local government web resources and services.